Terminal Aerodrome Forecast
Issued by NWS Louisville, KY

Home | Current Version | Previous Version | Text Only | Print | Product List | Glossary On
Versions: 1 2 3 4 5 6 7 8 9 10 11 12 13 14 15 16 17 18
000
FTUS43 KLMK 020525
TAFSDF
TAF
KSDF 020525Z 0206/0312 25006KT P6SM FEW040
     FM021600 28011KT P6SM FEW040 SCT250
     FM030000 31004KT P6SM SCT040 BKN250=

USA.gov is the U.S. government's official web portal to all federal, state and local government web resources and services.